sensor_id;sensor_type;location;lat;lon;timestamp;P1;durP1;ratioP1;P2;durP2;ratioP2
67798;SDS011;54596;43.216;27.904;2024-02-21T00:01:55;29.65;;;18.80;;
67798;SDS011;54596;43.216;27.904;2024-02-21T00:04:21;29.17;;;19.58;;
67798;SDS011;54596;43.216;27.904;2024-02-21T00:06:46;32.33;;;21.65;;
67798;SDS011;54596;43.216;27.904;2024-02-21T00:09:12;34.25;;;23.92;;
67798;SDS011;54596;43.216;27.904;2024-02-21T00:11:38;32.00;;;23.70;;
67798;SDS011;54596;43.216;27.904;2024-02-21T00:14:03;35.90;;;25.65;;
67798;SDS011;54596;43.216;27.904;2024-02-21T00:16:29;33.65;;;24.95;;
67798;SDS011;54596;43.216;27.904;2024-02-21T00:18:54;33.00;;;24.08;;
67798;SDS011;54596;43.216;27.904;2024-02-21T00:21:22;34.83;;;23.70;;
67798;SDS011;54596;43.216;27.904;2024-02-21T00:23:47;34.40;;;23.90;;
67798;SDS011;54596;43.216;27.904;2024-02-21T00:26:15;33.20;;;23.77;;
67798;SDS011;54596;43.216;27.904;2024-02-21T00:28:41;37.83;;;23.33;;
67798;SDS011;54596;43.216;27.904;2024-02-21T00:31:07;32.17;;;22.25;;
67798;SDS011;54596;43.216;27.904;2024-02-21T00:33:32;35.58;;;23.33;;
67798;SDS011;54596;43.216;27.904;2024-02-21T00:35:58;33.70;;;21.50;;
67798;SDS011;54596;43.216;27.904;2024-02-21T00:38:23;33.53;;;22.15;;
67798;SDS011;54596;43.216;27.904;2024-02-21T00:40:49;31.92;;;20.98;;
67798;SDS011;54596;43.216;27.904;2024-02-21T00:43:14;32.15;;;21.05;;
67798;SDS011;54596;43.216;27.904;2024-02-21T00:45:40;30.58;;;21.13;;
67798;SDS011;54596;43.216;27.904;2024-02-21T00:48:05;32.83;;;20.27;;
67798;SDS011;54596;43.216;27.904;2024-02-21T00:50:31;30.10;;;20.73;;
67798;SDS011;54596;43.216;27.904;2024-02-21T00:52:57;29.80;;;19.67;;
67798;SDS011;54596;43.216;27.904;2024-02-21T00:55:22;30.17;;;20.92;;
67798;SDS011;54596;43.216;27.904;2024-02-21T00:57:48;32.47;;;20.85;;
67798;SDS011;54596;43.216;27.904;2024-02-21T01:00:15;29.50;;;20.40;;
67798;SDS011;54596;43.216;27.904;2024-02-21T01:02:41;30.38;;;19.70;;
67798;SDS011;54596;43.216;27.904;2024-02-21T01:05:06;29.88;;;19.58;;
67798;SDS011;54596;43.216;27.904;2024-02-21T01:07:32;30.45;;;19.83;;
67798;SDS011;54596;43.216;27.904;2024-02-21T01:09:58;32.28;;;20.00;;
67798;SDS011;54596;43.216;27.904;2024-02-21T01:12:23;28.35;;;19.50;;
67798;SDS011;54596;43.216;27.904;2024-02-21T01:14:49;29.88;;;20.27;;
67798;SDS011;54596;43.216;27.904;2024-02-21T01:17:15;27.63;;;19.77;;
67798;SDS011;54596;43.216;27.904;2024-02-21T01:19:40;31.77;;;20.02;;
67798;SDS011;54596;43.216;27.904;2024-02-21T01:22:06;30.92;;;20.52;;
67798;SDS011;54596;43.216;27.904;2024-02-21T01:24:32;30.10;;;20.30;;
67798;SDS011;54596;43.216;27.904;2024-02-21T01:26:57;28.13;;;20.55;;
67798;SDS011;54596;43.216;27.904;2024-02-21T01:29:23;31.15;;;21.48;;
67798;SDS011;54596;43.216;27.904;2024-02-21T01:31:48;33.08;;;21.50;;
67798;SDS011;54596;43.216;27.904;2024-02-21T01:34:14;34.22;;;23.75;;
67798;SDS011;54596;43.216;27.904;2024-02-21T01:36:39;36.60;;;22.83;;
67798;SDS011;54596;43.216;27.904;2024-02-21T01:39:06;33.60;;;23.58;;
67798;SDS011;54596;43.216;27.904;2024-02-21T01:41:32;42.58;;;26.23;;
67798;SDS011;54596;43.216;27.904;2024-02-21T01:43:57;46.28;;;30.08;;
67798;SDS011;54596;43.216;27.904;2024-02-21T01:46:24;51.72;;;31.10;;
67798;SDS011;54596;43.216;27.904;2024-02-21T01:48:54;43.30;;;30.55;;
67798;SDS011;54596;43.216;27.904;2024-02-21T01:51:20;47.70;;;30.33;;
67798;SDS011;54596;43.216;27.904;2024-02-21T01:53:46;50.15;;;30.50;;
67798;SDS011;54596;43.216;27.904;2024-02-21T01:56:12;45.63;;;28.42;;
67798;SDS011;54596;43.216;27.904;2024-02-21T01:58:39;42.38;;;26.70;;
67798;SDS011;54596;43.216;27.904;2024-02-21T02:01:07;39.25;;;26.02;;
67798;SDS011;54596;43.216;27.904;2024-02-21T02:03:33;40.58;;;26.50;;
67798;SDS011;54596;43.216;27.904;2024-02-21T02:05:59;37.83;;;25.25;;
67798;SDS011;54596;43.216;27.904;2024-02-21T02:08:25;35.88;;;26.08;;
67798;SDS011;54596;43.216;27.904;2024-02-21T02:10:51;37.05;;;24.40;;
67798;SDS011;54596;43.216;27.904;2024-02-21T02:13:17;38.55;;;24.60;;
67798;SDS011;54596;43.216;27.904;2024-02-21T02:18:10;39.40;;;24.63;;
67798;SDS011;54596;43.216;27.904;2024-02-21T02:20:37;35.60;;;24.60;;
67798;SDS011;54596;43.216;27.904;2024-02-21T02:25:32;38.30;;;25.52;;
67798;SDS011;54596;43.216;27.904;2024-02-21T02:27:57;39.38;;;25.25;;
67798;SDS011;54596;43.216;27.904;2024-02-21T02:30:23;38.60;;;25.67;;
67798;SDS011;54596;43.216;27.904;2024-02-21T02:32:48;40.25;;;24.83;;
67798;SDS011;54596;43.216;27.904;2024-02-21T02:35:14;40.20;;;25.92;;
67798;SDS011;54596;43.216;27.904;2024-02-21T02:37:39;40.50;;;25.25;;
67798;SDS011;54596;43.216;27.904;2024-02-21T02:40:06;40.90;;;26.70;;
67798;SDS011;54596;43.216;27.904;2024-02-21T02:42:32;44.03;;;28.50;;
67798;SDS011;54596;43.216;27.904;2024-02-21T02:44:57;47.83;;;29.85;;
67798;SDS011;54596;43.216;27.904;2024-02-21T02:47:23;46.28;;;28.20;;
67798;SDS011;54596;43.216;27.904;2024-02-21T02:49:49;44.72;;;29.00;;
67798;SDS011;54596;43.216;27.904;2024-02-21T02:52:16;41.40;;;25.45;;
67798;SDS011;54596;43.216;27.904;2024-02-21T02:54:43;42.70;;;24.85;;
67798;SDS011;54596;43.216;27.904;2024-02-21T02:57:08;40.65;;;23.35;;
67798;SDS011;54596;43.216;27.904;2024-02-21T02:59:35;40.33;;;22.10;;
67798;SDS011;54596;43.216;27.904;2024-02-21T03:02:00;34.70;;;20.05;;
67798;SDS011;54596;43.216;27.904;2024-02-21T03:04:26;37.15;;;20.80;;
67798;SDS011;54596;43.216;27.904;2024-02-21T03:06:52;37.65;;;21.60;;
67798;SDS011;54596;43.216;27.904;2024-02-21T03:09:18;43.67;;;21.67;;
67798;SDS011;54596;43.216;27.904;2024-02-21T03:11:44;48.50;;;23.00;;
67798;SDS011;54596;43.216;27.904;2024-02-21T03:14:10;43.15;;;22.67;;
67798;SDS011;54596;43.216;27.904;2024-02-21T03:16:36;43.17;;;23.17;;
67798;SDS011;54596;43.216;27.904;2024-02-21T03:19:01;46.55;;;22.25;;
67798;SDS011;54596;43.216;27.904;2024-02-21T03:21:27;47.30;;;23.83;;
67798;SDS011;54596;43.216;27.904;2024-02-21T03:23:52;47.05;;;23.52;;
67798;SDS011;54596;43.216;27.904;2024-02-21T03:26:18;46.25;;;23.92;;
67798;SDS011;54596;43.216;27.904;2024-02-21T03:28:44;47.38;;;24.40;;
67798;SDS011;54596;43.216;27.904;2024-02-21T03:31:13;50.85;;;23.15;;
67798;SDS011;54596;43.216;27.904;2024-02-21T03:33:42;44.83;;;23.27;;
67798;SDS011;54596;43.216;27.904;2024-02-21T03:36:15;43.95;;;23.65;;
67798;SDS011;54596;43.216;27.904;2024-02-21T03:38:40;41.92;;;24.10;;
67798;SDS011;54596;43.216;27.904;2024-02-21T03:41:06;40.38;;;23.60;;
67798;SDS011;54596;43.216;27.904;2024-02-21T03:43:32;39.33;;;24.00;;
67798;SDS011;54596;43.216;27.904;2024-02-21T03:45:57;42.03;;;24.65;;
67798;SDS011;54596;43.216;27.904;2024-02-21T03:48:23;40.42;;;24.13;;
67798;SDS011;54596;43.216;27.904;2024-02-21T03:50:48;41.97;;;23.60;;
67798;SDS011;54596;43.216;27.904;2024-02-21T03:53:14;42.00;;;23.67;;
67798;SDS011;54596;43.216;27.904;2024-02-21T03:55:40;43.08;;;23.95;;
67798;SDS011;54596;43.216;27.904;2024-02-21T03:58:05;39.72;;;24.23;;
67798;SDS011;54596;43.216;27.904;2024-02-21T04:00:31;41.53;;;24.30;;
67798;SDS011;54596;43.216;27.904;2024-02-21T04:02:56;42.97;;;24.23;;
67798;SDS011;54596;43.216;27.904;2024-02-21T04:05:22;44.08;;;24.02;;
67798;SDS011;54596;43.216;27.904;2024-02-21T04:07:47;46.78;;;28.17;;
67798;SDS011;54596;43.216;27.904;2024-02-21T04:10:13;48.65;;;30.10;;
67798;SDS011;54596;43.216;27.904;2024-02-21T04:12:38;46.05;;;27.23;;
67798;SDS011;54596;43.216;27.904;2024-02-21T04:15:04;44.83;;;24.70;;
67798;SDS011;54596;43.216;27.904;2024-02-21T04:17:30;46.03;;;25.38;;
67798;SDS011;54596;43.216;27.904;2024-02-21T04:20:01;46.63;;;29.20;;
67798;SDS011;54596;43.216;27.904;2024-02-21T04:22:33;43.22;;;27.50;;
67798;SDS011;54596;43.216;27.904;2024-02-21T04:24:59;43.47;;;28.83;;
67798;SDS011;54596;43.216;27.904;2024-02-21T04:27:25;49.45;;;31.67;;
67798;SDS011;54596;43.216;27.904;2024-02-21T04:29:51;42.92;;;28.08;;
67798;SDS011;54596;43.216;27.904;2024-02-21T04:32:18;47.97;;;27.50;;
67798;SDS011;54596;43.216;27.904;2024-02-21T04:34:43;41.90;;;27.05;;
67798;SDS011;54596;43.216;27.904;2024-02-21T04:37:09;42.25;;;25.75;;
67798;SDS011;54596;43.216;27.904;2024-02-21T04:39:35;40.65;;;26.70;;
67798;SDS011;54596;43.216;27.904;2024-02-21T04:42:00;46.22;;;28.63;;
67798;SDS011;54596;43.216;27.904;2024-02-21T04:44:26;43.00;;;27.98;;
67798;SDS011;54596;43.216;27.904;2024-02-21T04:46:52;39.53;;;25.55;;
67798;SDS011;54596;43.216;27.904;2024-02-21T04:49:17;38.13;;;25.27;;
67798;SDS011;54596;43.216;27.904;2024-02-21T04:51:44;37.75;;;26.15;;
67798;SDS011;54596;43.216;27.904;2024-02-21T04:54:09;39.30;;;26.20;;
67798;SDS011;54596;43.216;27.904;2024-02-21T04:56:35;38.35;;;27.90;;
67798;SDS011;54596;43.216;27.904;2024-02-21T04:59:00;46.55;;;31.27;;
67798;SDS011;54596;43.216;27.904;2024-02-21T05:01:26;49.35;;;34.05;;
67798;SDS011;54596;43.216;27.904;2024-02-21T05:03:53;52.75;;;35.03;;
67798;SDS011;54596;43.216;27.904;2024-02-21T05:06:19;55.05;;;38.13;;
67798;SDS011;54596;43.216;27.904;2024-02-21T05:08:44;59.65;;;41.88;;
67798;SDS011;54596;43.216;27.904;2024-02-21T05:11:10;61.25;;;40.55;;
67798;SDS011;54596;43.216;27.904;2024-02-21T05:13:35;52.75;;;38.00;;
67798;SDS011;54596;43.216;27.904;2024-02-21T05:16:01;54.85;;;40.00;;
67798;SDS011;54596;43.216;27.904;2024-02-21T05:18:28;55.90;;;37.85;;
67798;SDS011;54596;43.216;27.904;2024-02-21T05:20:53;54.53;;;37.08;;
67798;SDS011;54596;43.216;27.904;2024-02-21T05:23:19;54.65;;;40.47;;
67798;SDS011;54596;43.216;27.904;2024-02-21T05:25:45;58.88;;;42.10;;
67798;SDS011;54596;43.216;27.904;2024-02-21T05:28:10;69.32;;;48.78;;
67798;SDS011;54596;43.216;27.904;2024-02-21T05:30:36;66.47;;;49.58;;
67798;SDS011;54596;43.216;27.904;2024-02-21T05:33:08;73.47;;;52.53;;
67798;SDS011;54596;43.216;27.904;2024-02-21T05:35:33;73.38;;;49.70;;
67798;SDS011;54596;43.216;27.904;2024-02-21T05:37:59;66.78;;;48.47;;
67798;SDS011;54596;43.216;27.904;2024-02-21T05:40:25;69.53;;;46.70;;
67798;SDS011;54596;43.216;27.904;2024-02-21T05:42:51;80.72;;;56.42;;
67798;SDS011;54596;43.216;27.904;2024-02-21T05:45:17;72.43;;;49.03;;
67798;SDS011;54596;43.216;27.904;2024-02-21T05:47:43;70.20;;;48.40;;
67798;SDS011;54596;43.216;27.904;2024-02-21T05:50:09;71.65;;;49.08;;
67798;SDS011;54596;43.216;27.904;2024-02-21T05:52:36;66.10;;;46.15;;
67798;SDS011;54596;43.216;27.904;2024-02-21T05:55:01;60.65;;;44.95;;
67798;SDS011;54596;43.216;27.904;2024-02-21T05:57:27;61.55;;;43.10;;
67798;SDS011;54596;43.216;27.904;2024-02-21T05:59:52;60.80;;;39.97;;
67798;SDS011;54596;43.216;27.904;2024-02-21T06:02:18;58.05;;;39.03;;
67798;SDS011;54596;43.216;27.904;2024-02-21T06:04:43;61.53;;;42.70;;
67798;SDS011;54596;43.216;27.904;2024-02-21T06:07:09;64.95;;;45.72;;
67798;SDS011;54596;43.216;27.904;2024-02-21T06:09:35;64.45;;;42.42;;
67798;SDS011;54596;43.216;27.904;2024-02-21T06:12:00;61.58;;;43.28;;
67798;SDS011;54596;43.216;27.904;2024-02-21T06:14:26;65.45;;;42.67;;
67798;SDS011;54596;43.216;27.904;2024-02-21T06:16:51;62.30;;;43.83;;
67798;SDS011;54596;43.216;27.904;2024-02-21T06:19:17;64.90;;;43.67;;
67798;SDS011;54596;43.216;27.904;2024-02-21T06:21:42;69.50;;;41.05;;
67798;SDS011;54596;43.216;27.904;2024-02-21T06:24:08;57.92;;;36.60;;
67798;SDS011;54596;43.216;27.904;2024-02-21T06:26:34;55.88;;;36.03;;
67798;SDS011;54596;43.216;27.904;2024-02-21T06:28:59;62.55;;;39.92;;
67798;SDS011;54596;43.216;27.904;2024-02-21T06:31:25;58.97;;;39.90;;
67798;SDS011;54596;43.216;27.904;2024-02-21T06:33:50;68.50;;;41.95;;
67798;SDS011;54596;43.216;27.904;2024-02-21T06:36:16;73.15;;;46.13;;
67798;SDS011;54596;43.216;27.904;2024-02-21T06:38:42;86.25;;;50.83;;
67798;SDS011;54596;43.216;27.904;2024-02-21T06:41:14;90.53;;;55.42;;
67798;SDS011;54596;43.216;27.904;2024-02-21T06:43:47;89.97;;;57.63;;
67798;SDS011;54596;43.216;27.904;2024-02-21T06:46:22;101.03;;;61.17;;
67798;SDS011;54596;43.216;27.904;2024-02-21T06:48:50;95.20;;;66.85;;
67798;SDS011;54596;43.216;27.904;2024-02-21T06:51:16;100.78;;;69.43;;
67798;SDS011;54596;43.216;27.904;2024-02-21T06:53:42;110.32;;;79.05;;
67798;SDS011;54596;43.216;27.904;2024-02-21T06:56:09;111.40;;;79.43;;
67798;SDS011;54596;43.216;27.904;2024-02-21T06:58:35;110.35;;;78.50;;
67798;SDS011;54596;43.216;27.904;2024-02-21T07:01:01;111.97;;;80.68;;
67798;SDS011;54596;43.216;27.904;2024-02-21T07:03:27;110.95;;;75.10;;
67798;SDS011;54596;43.216;27.904;2024-02-21T07:05:52;108.45;;;74.18;;
67798;SDS011;54596;43.216;27.904;2024-02-21T07:08:18;106.03;;;73.20;;
67798;SDS011;54596;43.216;27.904;2024-02-21T07:10:43;92.80;;;64.38;;
67798;SDS011;54596;43.216;27.904;2024-02-21T07:13:09;97.88;;;66.22;;
67798;SDS011;54596;43.216;27.904;2024-02-21T07:15:35;85.43;;;59.47;;
67798;SDS011;54596;43.216;27.904;2024-02-21T07:18:01;82.25;;;58.78;;
67798;SDS011;54596;43.216;27.904;2024-02-21T07:20:27;80.97;;;54.88;;
67798;SDS011;54596;43.216;27.904;2024-02-21T07:22:54;83.03;;;54.78;;
67798;SDS011;54596;43.216;27.904;2024-02-21T07:25:19;71.82;;;48.85;;
67798;SDS011;54596;43.216;27.904;2024-02-21T07:27:45;66.50;;;46.08;;
67798;SDS011;54596;43.216;27.904;2024-02-21T07:30:10;66.30;;;42.83;;
67798;SDS011;54596;43.216;27.904;2024-02-21T07:32:36;69.10;;;44.13;;
67798;SDS011;54596;43.216;27.904;2024-02-21T07:35:02;58.70;;;41.33;;
67798;SDS011;54596;43.216;27.904;2024-02-21T07:37:27;63.90;;;42.92;;
67798;SDS011;54596;43.216;27.904;2024-02-21T07:39:53;56.40;;;41.08;;
67798;SDS011;54596;43.216;27.904;2024-02-21T07:42:18;64.35;;;41.60;;
67798;SDS011;54596;43.216;27.904;2024-02-21T07:44:45;57.88;;;40.42;;
67798;SDS011;54596;43.216;27.904;2024-02-21T07:47:10;63.20;;;43.22;;
67798;SDS011;54596;43.216;27.904;2024-02-21T07:49:45;64.88;;;41.72;;
67798;SDS011;54596;43.216;27.904;2024-02-21T07:52:14;65.47;;;44.97;;
67798;SDS011;54596;43.216;27.904;2024-02-21T07:54:40;61.90;;;42.00;;
67798;SDS011;54596;43.216;27.904;2024-02-21T07:57:09;60.72;;;39.78;;
67798;SDS011;54596;43.216;27.904;2024-02-21T07:59:34;55.20;;;36.90;;
67798;SDS011;54596;43.216;27.904;2024-02-21T08:02:00;96.65;;;40.95;;
67798;SDS011;54596;43.216;27.904;2024-02-21T08:04:25;54.88;;;37.85;;
67798;SDS011;54596;43.216;27.904;2024-02-21T08:06:54;64.35;;;45.58;;
67798;SDS011;54596;43.216;27.904;2024-02-21T08:09:21;64.50;;;45.55;;
67798;SDS011;54596;43.216;27.904;2024-02-21T08:11:47;67.47;;;49.42;;
67798;SDS011;54596;43.216;27.904;2024-02-21T08:14:14;65.90;;;47.45;;
67798;SDS011;54596;43.216;27.904;2024-02-21T08:16:41;65.72;;;46.92;;
67798;SDS011;54596;43.216;27.904;2024-02-21T08:19:07;60.80;;;43.60;;
67798;SDS011;54596;43.216;27.904;2024-02-21T08:21:33;56.60;;;40.97;;
67798;SDS011;54596;43.216;27.904;2024-02-21T08:23:59;59.28;;;41.75;;
67798;SDS011;54596;43.216;27.904;2024-02-21T08:26:24;65.20;;;43.55;;
67798;SDS011;54596;43.216;27.904;2024-02-21T08:28:53;59.95;;;43.08;;
67798;SDS011;54596;43.216;27.904;2024-02-21T08:31:19;55.47;;;38.75;;
67798;SDS011;54596;43.216;27.904;2024-02-21T08:33:45;56.13;;;38.42;;
67798;SDS011;54596;43.216;27.904;2024-02-21T08:36:17;58.00;;;37.53;;
67798;SDS011;54596;43.216;27.904;2024-02-21T08:38:44;56.15;;;41.70;;
67798;SDS011;54596;43.216;27.904;2024-02-21T08:41:10;57.83;;;42.47;;
67798;SDS011;54596;43.216;27.904;2024-02-21T08:43:35;62.00;;;44.60;;
67798;SDS011;54596;43.216;27.904;2024-02-21T08:46:01;52.80;;;37.28;;
67798;SDS011;54596;43.216;27.904;2024-02-21T08:48:26;46.58;;;30.65;;
67798;SDS011;54596;43.216;27.904;2024-02-21T08:50:52;41.83;;;29.80;;
67798;SDS011;54596;43.216;27.904;2024-02-21T08:53:19;40.47;;;29.35;;
67798;SDS011;54596;43.216;27.904;2024-02-21T08:55:45;41.75;;;30.52;;
67798;SDS011;54596;43.216;27.904;2024-02-21T08:58:11;48.38;;;31.58;;
67798;SDS011;54596;43.216;27.904;2024-02-21T09:00:36;47.60;;;31.02;;
67798;SDS011;54596;43.216;27.904;2024-02-21T09:03:02;48.15;;;29.45;;
67798;SDS011;54596;43.216;27.904;2024-02-21T09:05:28;46.53;;;32.10;;
67798;SDS011;54596;43.216;27.904;2024-02-21T09:07:54;52.63;;;36.08;;
67798;SDS011;54596;43.216;27.904;2024-02-21T09:10:20;60.25;;;39.83;;
67798;SDS011;54596;43.216;27.904;2024-02-21T09:12:46;63.78;;;49.80;;
67798;SDS011;54596;43.216;27.904;2024-02-21T09:15:12;72.63;;;49.72;;
67798;SDS011;54596;43.216;27.904;2024-02-21T09:17:38;62.83;;;46.53;;
67798;SDS011;54596;43.216;27.904;2024-02-21T09:20:26;50.97;;;38.13;;
67798;SDS011;54596;43.216;27.904;2024-02-21T09:22:54;42.83;;;32.53;;
67798;SDS011;54596;43.216;27.904;2024-02-21T09:25:20;53.53;;;34.75;;
67798;SDS011;54596;43.216;27.904;2024-02-21T09:27:46;54.70;;;34.75;;
67798;SDS011;54596;43.216;27.904;2024-02-21T09:30:11;46.58;;;33.10;;
67798;SDS011;54596;43.216;27.904;2024-02-21T09:32:38;47.67;;;35.70;;
67798;SDS011;54596;43.216;27.904;2024-02-21T09:35:03;59.67;;;47.90;;
67798;SDS011;54596;43.216;27.904;2024-02-21T09:37:30;52.92;;;39.13;;
67798;SDS011;54596;43.216;27.904;2024-02-21T09:39:56;46.85;;;33.90;;
67798;SDS011;54596;43.216;27.904;2024-02-21T09:42:22;46.78;;;34.45;;
67798;SDS011;54596;43.216;27.904;2024-02-21T09:44:58;47.80;;;33.17;;
67798;SDS011;54596;43.216;27.904;2024-02-21T09:47:24;40.95;;;30.65;;
67798;SDS011;54596;43.216;27.904;2024-02-21T09:50:01;38.50;;;25.45;;
67798;SDS011;54596;43.216;27.904;2024-02-21T09:52:28;32.15;;;22.65;;
67798;SDS011;54596;43.216;27.904;2024-02-21T09:54:54;33.50;;;23.58;;
67798;SDS011;54596;43.216;27.904;2024-02-21T09:57:19;37.55;;;24.27;;
67798;SDS011;54596;43.216;27.904;2024-02-21T09:59:45;33.03;;;21.75;;
67798;SDS011;54596;43.216;27.904;2024-02-21T10:02:11;32.03;;;23.00;;
67798;SDS011;54596;43.216;27.904;2024-02-21T10:04:39;36.38;;;25.13;;
67798;SDS011;54596;43.216;27.904;2024-02-21T10:07:05;30.58;;;21.45;;
67798;SDS011;54596;43.216;27.904;2024-02-21T10:09:30;27.60;;;19.20;;
67798;SDS011;54596;43.216;27.904;2024-02-21T10:12:07;31.10;;;20.23;;
67798;SDS011;54596;43.216;27.904;2024-02-21T10:14:34;27.35;;;19.13;;
67798;SDS011;54596;43.216;27.904;2024-02-21T10:17:00;34.95;;;21.50;;
67798;SDS011;54596;43.216;27.904;2024-02-21T10:19:26;31.52;;;20.60;;
67798;SDS011;54596;43.216;27.904;2024-02-21T10:22:04;28.98;;;18.85;;
67798;SDS011;54596;43.216;27.904;2024-02-21T10:24:32;29.45;;;19.13;;
67798;SDS011;54596;43.216;27.904;2024-02-21T10:27:04;35.22;;;21.35;;
67798;SDS011;54596;43.216;27.904;2024-02-21T10:29:33;32.35;;;20.83;;
67798;SDS011;54596;43.216;27.904;2024-02-21T10:32:09;29.25;;;20.58;;
67798;SDS011;54596;43.216;27.904;2024-02-21T10:34:36;31.35;;;21.77;;
67798;SDS011;54596;43.216;27.904;2024-02-21T10:37:04;34.58;;;21.83;;
67798;SDS011;54596;43.216;27.904;2024-02-21T10:39:41;32.47;;;21.73;;
67798;SDS011;54596;43.216;27.904;2024-02-21T10:42:10;32.38;;;22.55;;
67798;SDS011;54596;43.216;27.904;2024-02-21T10:44:37;35.50;;;22.27;;
67798;SDS011;54596;43.216;27.904;2024-02-21T10:47:11;35.30;;;23.63;;
67798;SDS011;54596;43.216;27.904;2024-02-21T10:49:41;38.17;;;24.10;;
67798;SDS011;54596;43.216;27.904;2024-02-21T10:54:58;40.40;;;26.00;;
67798;SDS011;54596;43.216;27.904;2024-02-21T10:57:29;38.63;;;26.58;;
67798;SDS011;54596;43.216;27.904;2024-02-21T10:59:56;41.25;;;28.00;;
67798;SDS011;54596;43.216;27.904;2024-02-21T11:02:24;41.13;;;28.30;;
67798;SDS011;54596;43.216;27.904;2024-02-21T11:04:51;44.08;;;29.95;;
67798;SDS011;54596;43.216;27.904;2024-02-21T11:07:18;44.42;;;30.77;;
67798;SDS011;54596;43.216;27.904;2024-02-21T11:09:51;47.83;;;30.75;;
67798;SDS011;54596;43.216;27.904;2024-02-21T11:12:20;45.63;;;30.10;;
67798;SDS011;54596;43.216;27.904;2024-02-21T11:14:46;42.90;;;29.15;;
67798;SDS011;54596;43.216;27.904;2024-02-21T11:17:19;46.08;;;29.90;;
67798;SDS011;54596;43.216;27.904;2024-02-21T11:19:51;39.67;;;28.58;;
67798;SDS011;54596;43.216;27.904;2024-02-21T11:22:17;41.25;;;28.17;;
67798;SDS011;54596;43.216;27.904;2024-02-21T11:24:45;42.13;;;28.38;;
67798;SDS011;54596;43.216;27.904;2024-02-21T11:27:20;39.78;;;27.67;;
67798;SDS011;54596;43.216;27.904;2024-02-21T11:29:46;37.55;;;27.65;;
67798;SDS011;54596;43.216;27.904;2024-02-21T11:32:16;40.97;;;27.67;;
67798;SDS011;54596;43.216;27.904;2024-02-21T11:34:59;37.53;;;27.02;;
67798;SDS011;54596;43.216;27.904;2024-02-21T11:37:29;44.40;;;28.75;;
67798;SDS011;54596;43.216;27.904;2024-02-21T11:39:58;39.85;;;27.48;;
67798;SDS011;54596;43.216;27.904;2024-02-21T11:42:26;41.28;;;27.40;;
67798;SDS011;54596;43.216;27.904;2024-02-21T11:44:52;38.00;;;26.35;;
67798;SDS011;54596;43.216;27.904;2024-02-21T11:47:21;38.33;;;26.00;;
67798;SDS011;54596;43.216;27.904;2024-02-21T11:49:48;34.90;;;24.40;;
67798;SDS011;54596;43.216;27.904;2024-02-21T11:52:26;35.33;;;25.05;;
67798;SDS011;54596;43.216;27.904;2024-02-21T11:57:18;39.60;;;25.13;;
67798;SDS011;54596;43.216;27.904;2024-02-21T11:59:44;34.40;;;25.00;;
67798;SDS011;54596;43.216;27.904;2024-02-21T12:02:11;37.47;;;24.98;;
67798;SDS011;54596;43.216;27.904;2024-02-21T12:04:37;36.42;;;26.25;;
67798;SDS011;54596;43.216;27.904;2024-02-21T12:07:03;37.90;;;26.13;;
67798;SDS011;54596;43.216;27.904;2024-02-21T12:09:30;38.95;;;26.35;;
67798;SDS011;54596;43.216;27.904;2024-02-21T12:12:02;38.15;;;26.27;;
67798;SDS011;54596;43.216;27.904;2024-02-21T12:14:32;36.42;;;25.30;;
67798;SDS011;54596;43.216;27.904;2024-02-21T12:17:00;34.00;;;24.75;;
67798;SDS011;54596;43.216;27.904;2024-02-21T12:19:28;35.60;;;25.63;;
67798;SDS011;54596;43.216;27.904;2024-02-21T12:22:18;39.20;;;26.85;;
67798;SDS011;54596;43.216;27.904;2024-02-21T12:24:44;54.47;;;36.67;;
67798;SDS011;54596;43.216;27.904;2024-02-21T12:27:12;36.90;;;26.88;;
67798;SDS011;54596;43.216;27.904;2024-02-21T12:29:38;36.72;;;25.98;;
67798;SDS011;54596;43.216;27.904;2024-02-21T12:32:04;37.80;;;26.65;;
67798;SDS011;54596;43.216;27.904;2024-02-21T12:34:30;36.67;;;26.73;;
67798;SDS011;54596;43.216;27.904;2024-02-21T12:36:58;35.97;;;26.27;;
67798;SDS011;54596;43.216;27.904;2024-02-21T12:39:23;36.83;;;26.35;;
67798;SDS011;54596;43.216;27.904;2024-02-21T12:41:49;37.83;;;26.73;;
67798;SDS011;54596;43.216;27.904;2024-02-21T12:44:15;36.38;;;25.33;;
67798;SDS011;54596;43.216;27.904;2024-02-21T12:46:42;39.28;;;25.73;;
67798;SDS011;54596;43.216;27.904;2024-02-21T12:49:09;37.25;;;25.52;;
67798;SDS011;54596;43.216;27.904;2024-02-21T12:51:35;35.88;;;25.73;;
67798;SDS011;54596;43.216;27.904;2024-02-21T12:54:01;37.10;;;26.20;;
67798;SDS011;54596;43.216;27.904;2024-02-21T12:56:30;38.30;;;26.30;;
67798;SDS011;54596;43.216;27.904;2024-02-21T12:58:56;38.65;;;27.05;;
67798;SDS011;54596;43.216;27.904;2024-02-21T13:01:22;41.45;;;27.02;;
67798;SDS011;54596;43.216;27.904;2024-02-21T13:03:47;37.92;;;26.73;;
67798;SDS011;54596;43.216;27.904;2024-02-21T13:06:13;38.55;;;26.23;;
67798;SDS011;54596;43.216;27.904;2024-02-21T13:08:39;37.55;;;26.95;;
67798;SDS011;54596;43.216;27.904;2024-02-21T13:11:06;35.95;;;26.05;;
67798;SDS011;54596;43.216;27.904;2024-02-21T13:13:32;37.25;;;26.35;;
67798;SDS011;54596;43.216;27.904;2024-02-21T13:15:58;41.25;;;27.63;;
67798;SDS011;54596;43.216;27.904;2024-02-21T13:18:24;37.72;;;25.83;;
67798;SDS011;54596;43.216;27.904;2024-02-21T13:20:49;34.85;;;24.10;;
67798;SDS011;54596;43.216;27.904;2024-02-21T13:23:15;34.22;;;23.17;;
67798;SDS011;54596;43.216;27.904;2024-02-21T13:25:41;33.00;;;23.50;;
67798;SDS011;54596;43.216;27.904;2024-02-21T13:28:06;35.03;;;22.55;;
67798;SDS011;54596;43.216;27.904;2024-02-21T13:30:32;34.22;;;22.30;;
67798;SDS011;54596;43.216;27.904;2024-02-21T13:32:57;33.15;;;21.73;;
67798;SDS011;54596;43.216;27.904;2024-02-21T13:35:23;46.55;;;30.45;;
67798;SDS011;54596;43.216;27.904;2024-02-21T13:37:49;30.58;;;20.35;;
67798;SDS011;54596;43.216;27.904;2024-02-21T13:40:15;32.70;;;22.17;;
67798;SDS011;54596;43.216;27.904;2024-02-21T13:42:41;33.03;;;22.27;;
67798;SDS011;54596;43.216;27.904;2024-02-21T13:45:08;33.30;;;22.08;;
67798;SDS011;54596;43.216;27.904;2024-02-21T13:47:34;32.38;;;22.20;;
67798;SDS011;54596;43.216;27.904;2024-02-21T13:50:02;29.52;;;20.08;;
67798;SDS011;54596;43.216;27.904;2024-02-21T13:52:29;30.67;;;20.55;;
67798;SDS011;54596;43.216;27.904;2024-02-21T13:54:56;34.90;;;22.33;;
67798;SDS011;54596;43.216;27.904;2024-02-21T13:57:22;33.58;;;22.40;;
67798;SDS011;54596;43.216;27.904;2024-02-21T13:59:48;33.80;;;21.95;;
67798;SDS011;54596;43.216;27.904;2024-02-21T14:02:14;33.08;;;22.08;;
67798;SDS011;54596;43.216;27.904;2024-02-21T14:04:41;30.05;;;20.02;;
67798;SDS011;54596;43.216;27.904;2024-02-21T14:07:08;30.73;;;19.80;;
67798;SDS011;54596;43.216;27.904;2024-02-21T14:09:33;28.92;;;19.63;;
67798;SDS011;54596;43.216;27.904;2024-02-21T14:11:59;29.83;;;20.27;;
67798;SDS011;54596;43.216;27.904;2024-02-21T14:14:28;28.02;;;18.95;;
67798;SDS011;54596;43.216;27.904;2024-02-21T14:16:58;33.10;;;21.63;;